Time;durP1;ratioP1;P1;durP2;ratioP2;P2;SDS_P1;SDS_P2;PMS_P1;PMS_P2;Temp;Humidity;BMP_temperature;BMP_pressure;BME280_temperature;BME280_humidity;BME280_pressure;Samples;Min_cycle;Max_cycle;Signal;HPM_P1;HPM_P2
2021/08/14 00:01:24;;;;;;;9.27;7.17;;;24.00;99.90;;;;;;5006889;28;20196;-73
2021/08/14 00:03:49;;;;;;;9.20;7.63;;;23.90;99.90;;;;;;5002190;28;20181;-73
2021/08/14 00:06:18;;;;;;;9.40;7.30;;;23.80;99.90;;;;;;5006321;28;20185;-73
2021/08/14 00:08:45;;;;;;;9.70;7.43;;;23.90;99.90;;;;;;5020554;28;20196;-73
2021/08/14 00:11:11;;;;;;;10.63;7.70;;;23.80;99.90;;;;;;5003865;28;20589;-73
2021/08/14 00:13:39;;;;;;;10.47;7.90;;;23.70;99.90;;;;;;5001286;28;20645;-73
2021/08/14 00:16:07;;;;;;;7.90;6.87;;;23.80;99.90;;;;;;5005077;28;20444;-73
2021/08/14 00:18:32;;;;;;;9.77;7.30;;;23.80;99.90;;;;;;5003810;28;20479;-74
2021/08/14 00:20:58;;;;;;;7.90;7.10;;;23.80;99.90;;;;;;5003823;28;20510;-73
2021/08/14 00:23:25;;;;;;;13.10;7.53;;;23.80;99.90;;;;;;5014760;28;20189;-73
2021/08/14 00:25:51;;;;;;;8.40;7.50;;;24.10;99.90;;;;;;5004653;28;20251;-73
2021/08/14 00:28:17;;;;;;;8.80;7.87;;;23.80;99.90;;;;;;5005547;28;20451;-72
2021/08/14 00:30:42;;;;;;;10.77;7.30;;;23.90;99.90;;;;;;4999852;28;20203;-72
2021/08/14 00:33:11;;;;;;;7.20;6.30;;;23.90;99.90;;;;;;5002526;28;20933;-72
2021/08/14 00:35:38;;;;;;;8.40;7.33;;;23.80;99.90;;;;;;5006823;28;20199;-72
2021/08/14 00:38:07;;;;;;;11.83;7.70;;;23.80;99.90;;;;;;4969677;28;20480;-73
2021/08/14 00:40:32;;;;;;;7.87;6.53;;;23.90;99.90;;;;;;5004769;28;20459;-74
2021/08/14 00:43:02;;;;;;;9.67;7.70;;;24.00;99.90;;;;;;5004811;28;20425;-73
2021/08/14 00:45:29;;;;;;;9.10;7.03;;;24.30;99.90;;;;;;5001698;28;20431;-72
2021/08/14 00:47:55;;;;;;;9.23;7.33;;;24.50;99.90;;;;;;5004083;28;20464;-73
2021/08/14 00:50:21;;;;;;;8.90;7.53;;;24.60;99.90;;;;;;5001121;28;20490;-73
2021/08/14 00:52:47;;;;;;;7.93;6.90;;;24.60;99.90;;;;;;5002814;28;20965;-74
2021/08/14 00:55:13;;;;;;;11.03;7.00;;;24.40;99.90;;;;;;5005724;28;20189;-73
2021/08/14 00:57:43;;;;;;;8.23;7.30;;;24.40;99.90;;;;;;5002717;28;20597;-73
2021/08/14 01:00:09;;;;;;;7.70;7.00;;;24.40;99.90;;;;;;5005077;28;20239;-73
2021/08/14 01:02:37;;;;;;;7.60;6.73;;;24.60;99.90;;;;;;5003951;28;20523;-73
2021/08/14 01:05:03;;;;;;;8.97;7.13;;;24.50;99.90;;;;;;5001426;28;20416;-73
2021/08/14 01:07:30;;;;;;;7.10;6.40;;;24.40;99.90;;;;;;5004523;28;20470;-73
2021/08/14 01:09:57;;;;;;;9.43;7.83;;;24.40;99.90;;;;;;4987501;28;20214;-72
2021/08/14 01:12:23;;;;;;;8.60;7.20;;;24.30;99.90;;;;;;4986371;28;20449;-73
2021/08/14 01:14:50;;;;;;;7.67;6.67;;;24.40;99.90;;;;;;5004658;28;20431;-72
2021/08/14 01:17:17;;;;;;;8.00;7.20;;;24.50;99.90;;;;;;5002067;28;20281;-72
2021/08/14 01:19:43;;;;;;;8.50;7.70;;;24.50;99.90;;;;;;5002322;28;20872;-74
2021/08/14 01:22:11;;;;;;;8.10;7.30;;;24.50;99.90;;;;;;5004511;28;20957;-72
2021/08/14 01:24:37;;;;;;;9.57;7.77;;;24.50;99.90;;;;;;4987515;28;21077;-73
2021/08/14 01:27:05;;;;;;;7.80;7.10;;;24.50;99.90;;;;;;5003595;28;20437;-72
2021/08/14 01:29:37;;;;;;;9.60;8.10;;;24.50;99.90;;;;;;5015938;28;20229;-73
2021/08/14 01:32:10;;;;;;;8.90;7.57;;;24.40;99.90;;;;;;5002548;28;20527;-73
2021/08/14 01:34:46;;;;;;;8.23;7.40;;;24.50;99.90;;;;;;5021130;28;20491;-73
2021/08/14 01:37:15;;;;;;;9.03;7.30;;;24.20;99.90;;;;;;5003143;28;20803;-73
2021/08/14 01:39:40;;;;;;;7.90;7.10;;;24.10;99.90;;;;;;5002558;28;20819;-72
2021/08/14 01:42:08;;;;;;;8.40;7.53;;;24.30;99.90;;;;;;5003463;28;20417;-72
2021/08/14 01:44:38;;;;;;;7.80;7.10;;;24.10;99.90;;;;;;5001679;28;20196;-72
2021/08/14 01:47:05;;;;;;;10.43;7.87;;;24.00;99.90;;;;;;5017174;28;21046;-72
2021/08/14 01:49:31;;;;;;;9.60;7.43;;;24.00;99.90;;;;;;5005398;28;21023;-72
2021/08/14 01:51:57;;;;;;;8.23;7.20;;;23.90;99.90;;;;;;5000507;28;20444;-72
2021/08/14 01:54:24;;;;;;;11.50;7.97;;;23.80;99.90;;;;;;5004614;28;20719;-72
2021/08/14 01:56:50;;;;;;;8.10;7.20;;;23.90;99.90;;;;;;5019968;28;20527;-72
2021/08/14 01:59:16;;;;;;;8.93;7.80;;;24.10;99.90;;;;;;5003703;28;20578;-73
2021/08/14 02:01:41;;;;;;;9.10;7.50;;;24.10;99.90;;;;;;5007749;28;20282;-72
2021/08/14 02:04:08;;;;;;;10.33;7.77;;;23.90;99.90;;;;;;5007012;28;20242;-73
2021/08/14 02:06:34;;;;;;;10.10;7.87;;;23.70;99.90;;;;;;5021278;28;20211;-73
2021/08/14 02:09:00;;;;;;;8.37;7.53;;;23.80;99.90;;;;;;5022155;28;20982;-73
2021/08/14 02:11:28;;;;;;;8.23;7.43;;;23.80;99.90;;;;;;5005476;28;20193;-73
2021/08/14 02:13:57;;;;;;;9.63;8.20;;;23.80;99.90;;;;;;5004987;28;20554;-73
2021/08/14 02:16:23;;;;;;;8.43;7.63;;;23.40;99.90;;;;;;5004616;28;20539;-73
2021/08/14 02:18:59;;;;;;;8.47;7.50;;;23.60;99.90;;;;;;5001338;28;20888;-73
2021/08/14 02:21:28;;;;;;;8.57;7.70;;;23.70;99.90;;;;;;5009824;28;20431;-73
2021/08/14 02:23:56;;;;;;;9.40;7.60;;;23.70;99.90;;;;;;5003720;28;20868;-73
2021/08/14 02:26:21;;;;;;;9.20;7.40;;;23.60;99.90;;;;;;5005212;28;20435;-73
2021/08/14 02:28:54;;;;;;;8.43;7.43;;;23.80;99.90;;;;;;5023667;28;20451;-73
2021/08/14 02:31:20;;;;;;;9.33;8.40;;;23.90;99.90;;;;;;5004976;28;20681;-73
2021/08/14 02:33:52;;;;;;;11.03;7.73;;;23.70;99.90;;;;;;5005521;28;20436;-73
2021/08/14 02:36:21;;;;;;;10.67;8.00;;;23.70;99.90;;;;;;5007815;28;20567;-73
2021/08/14 02:38:46;;;;;;;10.30;7.93;;;23.70;99.90;;;;;;5002875;28;20849;-73
2021/08/14 02:41:12;;;;;;;8.47;7.60;;;23.70;99.90;;;;;;5007787;28;20432;-73
2021/08/14 02:43:38;;;;;;;9.30;8.40;;;23.70;99.90;;;;;;5005875;28;20193;-73
2021/08/14 02:46:04;;;;;;;10.73;9.20;;;23.40;99.90;;;;;;5003508;28;20189;-73
2021/08/14 02:48:31;;;;;;;9.60;7.90;;;23.60;99.90;;;;;;5006479;28;20205;-73
2021/08/14 02:50:57;;;;;;;12.00;8.67;;;23.70;99.90;;;;;;5005049;28;20440;-73
2021/08/14 02:53:23;;;;;;;12.27;8.43;;;23.40;99.90;;;;;;5004460;28;20849;-73
2021/08/14 02:55:52;;;;;;;9.57;8.67;;;23.10;99.90;;;;;;5019303;28;20467;-73
2021/08/14 02:58:18;;;;;;;13.30;8.07;;;23.30;99.90;;;;;;4988194;28;21020;-73
2021/08/14 03:00:45;;;;;;;8.10;7.30;;;23.40;99.90;;;;;;4990234;28;20444;-72
2021/08/14 03:03:10;;;;;;;9.10;8.20;;;23.20;99.90;;;;;;4990222;28;20420;-72
2021/08/14 03:05:36;;;;;;;10.03;8.80;;;23.20;99.90;;;;;;5003425;28;20988;-72
2021/08/14 03:08:06;;;;;;;11.77;8.00;;;23.40;99.90;;;;;;5020202;28;20212;-72
2021/08/14 03:10:36;;;;;;;9.50;8.57;;;23.50;99.90;;;;;;5005838;28;20773;-73
2021/08/14 03:13:02;;;;;;;9.90;8.70;;;23.50;99.90;;;;;;5017136;28;20533;-73
2021/08/14 03:15:28;;;;;;;8.10;7.30;;;23.30;99.90;;;;;;5007915;28;20421;-73
2021/08/14 03:17:54;;;;;;;10.43;7.90;;;23.20;99.90;;;;;;5003887;28;20235;-73
2021/08/14 03:20:23;;;;;;;8.90;8.00;;;23.20;99.90;;;;;;5004948;28;20962;-73
2021/08/14 03:22:49;;;;;;;8.43;7.47;;;23.40;99.90;;;;;;5005566;28;20444;-73
2021/08/14 03:25:14;;;;;;;8.43;7.57;;;23.50;99.90;;;;;;5002976;28;20439;-73
2021/08/14 03:27:40;;;;;;;12.70;8.17;;;23.30;99.90;;;;;;5007301;28;20197;-73
2021/08/14 03:30:07;;;;;;;8.97;7.63;;;23.10;99.90;;;;;;5004161;28;20232;-73
2021/08/14 03:32:34;;;;;;;9.13;8.23;;;23.10;99.90;;;;;;5002570;28;20622;-73
2021/08/14 03:34:59;;;;;;;8.93;8.00;;;23.00;99.90;;;;;;5018851;28;20949;-73
2021/08/14 03:37:25;;;;;;;11.17;9.97;;;23.10;99.90;;;;;;5003660;28;20448;-74
2021/08/14 03:39:54;;;;;;;8.67;7.53;;;23.00;99.90;;;;;;5001675;28;20212;-72
2021/08/14 03:42:19;;;;;;;11.20;9.87;;;23.00;99.90;;;;;;5019312;28;20227;-73
2021/08/14 03:44:49;;;;;;;11.63;8.00;;;22.80;99.90;;;;;;5007065;28;20942;-68
2021/08/14 03:47:16;;;;;;;13.33;8.73;;;22.70;99.90;;;;;;5003000;28;20195;-69
2021/08/14 03:49:43;;;;;;;8.90;7.83;;;22.80;99.90;;;;;;5006024;28;21163;-69
2021/08/14 03:52:09;;;;;;;9.27;8.30;;;22.70;99.90;;;;;;4987191;28;20221;-69
2021/08/14 03:54:34;;;;;;;9.43;8.33;;;23.00;99.90;;;;;;5004860;28;20453;-72
2021/08/14 03:57:00;;;;;;;8.93;8.03;;;23.00;99.90;;;;;;4991342;28;20189;-72
2021/08/14 03:59:26;;;;;;;9.43;8.53;;;23.00;99.90;;;;;;5006462;28;20221;-72
2021/08/14 04:04:56;;;;;;;8.73;7.83;;;23.10;99.90;;;;;;5007471;28;20259;-69
2021/08/14 04:07:22;;;;;;;8.40;7.60;;;23.00;99.90;;;;;;5003764;28;20428;-68
2021/08/14 04:09:51;;;;;;;9.70;8.30;;;22.90;99.90;;;;;;5005787;28;20672;-68
2021/08/14 04:12:26;;;;;;;9.17;8.30;;;22.80;99.90;;;;;;5004308;28;20213;-72
2021/08/14 04:14:55;;;;;;;9.90;8.60;;;22.90;99.90;;;;;;5001030;28;20446;-72
2021/08/14 04:17:20;;;;;;;9.50;7.70;;;22.80;99.90;;;;;;4988415;28;20432;-71
2021/08/14 04:20:05;;;;;;;10.77;8.40;;;22.80;99.90;;;;;;5009454;28;20555;-67
2021/08/14 04:22:33;;;;;;;9.93;8.43;;;23.00;99.90;;;;;;5002812;28;20193;-67
2021/08/14 04:25:01;;;;;;;9.40;8.37;;;23.10;99.90;;;;;;5006505;28;20424;-67
2021/08/14 04:27:26;;;;;;;8.73;7.80;;;23.20;99.90;;;;;;5008889;28;20440;-67
2021/08/14 04:29:52;;;;;;;8.67;7.77;;;23.30;99.90;;;;;;5003772;28;20479;-73
2021/08/14 04:32:20;;;;;;;9.70;8.60;;;23.30;99.90;;;;;;5004322;28;20796;-72
2021/08/14 04:34:45;;;;;;;8.13;7.30;;;23.30;99.90;;;;;;5003666;28;20185;-72
2021/08/14 04:37:13;;;;;;;8.93;7.90;;;23.30;99.90;;;;;;5001768;28;20547;-72
2021/08/14 04:39:40;;;;;;;8.20;7.27;;;22.90;99.90;;;;;;5003162;28;20690;-68
2021/08/14 04:42:06;;;;;;;9.70;8.80;;;22.80;99.90;;;;;;5002430;28;20853;-73
2021/08/14 04:44:34;;;;;;;8.80;7.53;;;23.00;99.90;;;;;;5006318;28;20436;-67
2021/08/14 04:47:11;;;;;;;7.27;6.50;;;23.00;99.90;;;;;;5004830;28;20511;-72
2021/08/14 04:49:37;;;;;;;9.00;8.07;;;22.90;99.90;;;;;;5003500;28;20211;-73
2021/08/14 04:52:03;;;;;;;9.80;8.30;;;22.90;99.90;;;;;;5005807;28;20416;-70
2021/08/14 04:54:29;;;;;;;8.00;7.20;;;22.60;99.90;;;;;;5007018;28;20493;-72
2021/08/14 04:56:54;;;;;;;8.90;8.00;;;22.60;99.90;;;;;;5003843;28;20235;-72
2021/08/14 04:59:20;;;;;;;8.50;7.60;;;22.70;99.90;;;;;;5005813;28;20304;-67
2021/08/14 05:01:46;;;;;;;10.60;7.90;;;22.50;99.90;;;;;;5005695;28;20250;-71
2021/08/14 05:04:12;;;;;;;8.77;7.90;;;22.40;99.90;;;;;;5001718;28;20181;-71
2021/08/14 05:06:40;;;;;;;8.53;7.50;;;22.50;99.90;;;;;;5006742;28;20932;-72
2021/08/14 05:09:10;;;;;;;8.70;7.70;;;22.60;99.90;;;;;;5001801;28;20586;-71
2021/08/14 05:11:36;;;;;;;8.70;7.80;;;22.60;99.90;;;;;;5018590;28;20440;-72
2021/08/14 05:14:01;;;;;;;11.33;8.47;;;22.70;99.90;;;;;;5005390;28;20440;-72
2021/08/14 05:16:28;;;;;;;8.73;7.70;;;22.60;99.90;;;;;;4987031;28;20217;-72
2021/08/14 05:18:59;;;;;;;8.97;8.07;;;22.60;99.90;;;;;;4985454;28;20248;-71
2021/08/14 05:21:25;;;;;;;9.53;7.70;;;22.40;99.90;;;;;;5002922;28;20447;-72
2021/08/14 05:23:51;;;;;;;9.70;7.50;;;22.20;99.90;;;;;;5017082;28;21057;-72
2021/08/14 05:26:16;;;;;;;9.40;8.50;;;22.30;99.90;;;;;;5006118;28;20844;-72
2021/08/14 05:28:42;;;;;;;9.63;8.07;;;22.50;99.90;;;;;;5003709;28;20224;-72
2021/08/14 05:31:08;;;;;;;14.53;8.27;;;22.60;99.90;;;;;;5005992;28;20679;-72
2021/08/14 05:33:34;;;;;;;9.40;7.90;;;22.60;99.90;;;;;;5008495;28;20430;-72
2021/08/14 05:36:01;;;;;;;12.33;8.77;;;22.70;99.90;;;;;;5005791;28;20189;-72
2021/08/14 05:38:28;;;;;;;10.07;9.07;;;22.80;99.90;;;;;;5006723;28;20301;-71
2021/08/14 05:40:54;;;;;;;9.20;8.03;;;22.80;99.90;;;;;;5005461;28;20442;-71
2021/08/14 05:43:19;;;;;;;11.70;9.20;;;22.70;99.90;;;;;;4988904;28;20436;-71
2021/08/14 05:45:48;;;;;;;10.33;8.50;;;22.70;99.90;;;;;;5009560;28;20420;-72
2021/08/14 05:48:19;;;;;;;9.30;8.40;;;22.60;99.90;;;;;;5006243;28;20213;-72
2021/08/14 05:50:46;;;;;;;10.17;9.13;;;22.70;99.90;;;;;;5006802;28;20432;-67
2021/08/14 05:53:12;;;;;;;9.60;8.60;;;22.80;99.90;;;;;;5009065;28;20435;-68
2021/08/14 05:55:38;;;;;;;9.50;8.30;;;22.70;99.90;;;;;;5006285;28;20431;-66
2021/08/14 05:58:05;;;;;;;10.93;8.33;;;22.70;99.90;;;;;;5004281;28;20487;-68
2021/08/14 06:00:34;;;;;;;10.23;8.93;;;22.90;99.90;;;;;;4997867;28;20515;-67
2021/08/14 06:02:59;;;;;;;9.87;8.87;;;23.00;99.90;;;;;;5005779;28;20435;-67
2021/08/14 06:05:25;;;;;;;9.67;8.70;;;23.10;99.90;;;;;;5005514;28;21002;-68
2021/08/14 06:07:54;;;;;;;10.27;9.17;;;23.20;99.90;;;;;;5006294;28;20198;-68
2021/08/14 06:10:20;;;;;;;8.87;7.97;;;23.20;99.90;;;;;;5004147;28;20560;-68
2021/08/14 06:12:46;;;;;;;10.53;9.07;;;23.30;99.90;;;;;;5006895;28;20441;-68
2021/08/14 06:15:16;;;;;;;10.80;8.90;;;23.40;99.90;;;;;;5003731;28;20471;-68
2021/08/14 06:17:44;;;;;;;9.73;8.33;;;23.30;99.90;;;;;;5005560;28;20471;-68
2021/08/14 06:20:18;;;;;;;9.67;8.73;;;23.40;99.90;;;;;;5004940;28;20428;-68
2021/08/14 06:22:47;;;;;;;10.63;8.10;;;23.30;99.90;;;;;;5007098;28;20219;-67
2021/08/14 06:25:15;;;;;;;9.63;8.67;;;23.40;99.90;;;;;;5004818;28;20440;-67
2021/08/14 06:27:43;;;;;;;9.00;8.10;;;23.30;99.90;;;;;;5018320;28;20436;-65
2021/08/14 06:30:10;;;;;;;9.10;8.00;;;23.10;99.90;;;;;;5003540;28;20455;-66
2021/08/14 06:32:36;;;;;;;10.80;9.03;;;23.30;99.90;;;;;;5004813;28;20439;-65
2021/08/14 06:35:02;;;;;;;11.87;8.63;;;23.20;99.90;;;;;;5004186;28;20957;-66
2021/08/14 06:37:27;;;;;;;10.17;8.17;;;23.20;99.90;;;;;;5007991;28;20216;-66
2021/08/14 06:39:53;;;;;;;9.80;7.97;;;23.40;99.90;;;;;;5002925;28;20213;-65
2021/08/14 06:42:18;;;;;;;10.43;9.33;;;23.40;99.90;;;;;;5005161;28;20181;-66
2021/08/14 06:44:44;;;;;;;19.93;17.73;;;23.50;99.90;;;;;;5006956;28;20802;-66
2021/08/14 06:47:10;;;;;;;13.17;8.60;;;23.50;99.90;;;;;;5003725;28;21110;-65
2021/08/14 06:49:35;;;;;;;9.70;8.23;;;23.60;99.90;;;;;;5005820;28;20221;-65
2021/08/14 06:52:01;;;;;;;10.50;9.27;;;23.80;99.90;;;;;;5005125;28;20830;-65
2021/08/14 06:54:29;;;;;;;9.97;8.93;;;23.80;99.90;;;;;;5006526;28;20201;-64
2021/08/14 06:56:55;;;;;;;9.80;8.90;;;23.80;99.90;;;;;;5006093;28;20224;-65
2021/08/14 06:59:22;;;;;;;9.10;8.30;;;23.70;99.90;;;;;;5004497;28;20479;-66
2021/08/14 07:01:47;;;;;;;10.93;9.93;;;24.00;99.90;;;;;;5004451;28;20531;-65
2021/08/14 07:04:13;;;;;;;12.00;8.83;;;24.00;99.90;;;;;;5006961;28;20439;-65
2021/08/14 07:06:38;;;;;;;9.00;8.10;;;24.10;99.90;;;;;;5004124;28;20212;-66
2021/08/14 07:09:04;;;;;;;9.63;8.23;;;24.20;99.90;;;;;;5006599;28;20267;-65
2021/08/14 07:11:30;;;;;;;8.93;7.00;;;24.20;99.90;;;;;;5006131;28;20181;-66
2021/08/14 07:13:55;;;;;;;9.07;8.17;;;24.30;99.90;;;;;;5003459;28;20275;-65
2021/08/14 07:16:22;;;;;;;15.93;14.27;;;24.40;99.90;;;;;;5004439;28;20193;-65
2021/08/14 07:18:51;;;;;;;16.37;14.37;;;24.40;99.90;;;;;;5002125;28;20262;-65
2021/08/14 07:21:16;;;;;;;16.57;11.67;;;24.40;99.90;;;;;;5003648;28;20448;-65
2021/08/14 07:23:42;;;;;;;8.73;7.83;;;24.40;99.90;;;;;;5006692;28;20959;-64
2021/08/14 07:26:08;;;;;;;8.83;7.57;;;24.40;99.90;;;;;;5004543;28;20564;-65
2021/08/14 07:28:34;;;;;;;7.67;6.87;;;24.50;99.90;;;;;;5006643;28;20985;-65
2021/08/14 07:31:03;;;;;;;8.20;7.40;;;24.60;99.90;;;;;;5002746;28;20205;-65
2021/08/14 07:33:28;;;;;;;14.43;8.30;;;24.70;99.90;;;;;;5004314;28;20444;-70
2021/08/14 07:35:54;;;;;;;8.20;7.40;;;24.70;99.90;;;;;;5006273;28;20510;-72
2021/08/14 07:38:23;;;;;;;10.47;9.37;;;24.60;99.90;;;;;;5001482;28;20467;-71
2021/08/14 07:40:49;;;;;;;10.27;9.23;;;24.70;99.90;;;;;;5004832;28;20440;-71
2021/08/14 07:43:14;;;;;;;10.43;8.10;;;24.70;99.90;;;;;;5004264;28;20602;-71
2021/08/14 07:45:40;;;;;;;8.60;7.80;;;24.70;99.90;;;;;;5002438;28;20208;-71
2021/08/14 07:48:07;;;;;;;9.90;7.70;;;24.60;99.90;;;;;;5006136;28;20209;-70
2021/08/14 07:50:36;;;;;;;8.73;7.53;;;24.80;99.90;;;;;;5001614;28;20274;-71
2021/08/14 07:53:03;;;;;;;8.13;7.33;;;24.80;99.90;;;;;;5005357;28;20447;-71
2021/08/14 07:55:33;;;;;;;10.33;7.70;;;25.00;99.90;;;;;;5000946;28;20500;-71
2021/08/14 07:58:00;;;;;;;8.70;7.90;;;25.10;99.90;;;;;;5001285;28;20480;-71
2021/08/14 08:00:27;;;;;;;9.10;7.63;;;25.20;99.90;;;;;;5022440;28;20467;-71
2021/08/14 08:02:53;;;;;;;8.07;7.10;;;25.20;99.90;;;;;;5002363;28;20938;-67
2021/08/14 08:05:20;;;;;;;8.17;7.37;;;25.30;99.90;;;;;;5002707;28;20428;-69
2021/08/14 08:07:46;;;;;;;8.73;7.40;;;25.30;99.90;;;;;;5005574;28;20976;-69
2021/08/14 08:10:16;;;;;;;12.30;6.80;;;25.40;99.90;;;;;;5002657;28;20440;-69
2021/08/14 08:12:42;;;;;;;8.80;7.27;;;25.40;99.90;;;;;;5002870;28;20891;-69
2021/08/14 08:15:10;;;;;;;7.70;6.77;;;25.50;99.90;;;;;;5004582;28;20435;-69
2021/08/14 08:17:36;;;;;;;7.43;6.63;;;25.60;99.90;;;;;;5002503;28;20432;-69
2021/08/14 08:20:03;;;;;;;11.87;7.80;;;25.60;99.90;;;;;;5002424;28;21453;-69
2021/08/14 08:22:29;;;;;;;9.37;6.73;;;25.60;99.90;;;;;;5000583;28;20440;-69
2021/08/14 08:24:55;;;;;;;16.07;10.77;;;25.70;99.90;;;;;;5003858;28;20445;-69
2021/08/14 08:27:22;;;;;;;8.10;7.30;;;25.70;99.90;;;;;;5005225;28;20208;-69
2021/08/14 08:29:48;;;;;;;9.90;7.97;;;25.80;99.90;;;;;;5002020;28;20263;-68
2021/08/14 08:32:14;;;;;;;8.77;7.97;;;26.00;99.90;;;;;;5006040;28;20790;-69
2021/08/14 08:34:39;;;;;;;8.30;7.50;;;26.00;99.90;;;;;;5006303;28;20228;-69
2021/08/14 08:37:05;;;;;;;8.67;7.43;;;26.00;99.90;;;;;;5003762;28;20192;-71
2021/08/14 08:39:32;;;;;;;11.37;9.60;;;26.00;99.90;;;;;;5003639;28;20213;-69
2021/08/14 08:41:59;;;;;;;8.47;7.57;;;26.10;99.90;;;;;;5004584;28;20189;-69
2021/08/14 08:44:25;;;;;;;8.17;6.60;;;26.10;99.90;;;;;;5002463;28;20439;-69
2021/08/14 08:46:51;;;;;;;9.10;7.83;;;26.20;99.90;;;;;;5004165;28;20436;-69
2021/08/14 08:49:19;;;;;;;7.33;6.73;;;26.10;99.90;;;;;;5002069;28;20459;-69
2021/08/14 08:51:46;;;;;;;10.27;9.27;;;26.20;99.90;;;;;;5005352;28;20547;-69
2021/08/14 08:54:14;;;;;;;7.40;6.60;;;26.40;99.90;;;;;;5004331;28;22169;-70
2021/08/14 08:56:40;;;;;;;10.23;6.83;;;26.50;99.90;;;;;;5001250;28;20459;-69
2021/08/14 08:59:06;;;;;;;7.63;6.93;;;26.40;99.90;;;;;;5003038;28;20486;-70
2021/08/14 09:01:35;;;;;;;7.60;6.80;;;26.50;99.90;;;;;;5003530;28;20516;-69
2021/08/14 09:04:24;;;;;;;7.30;6.57;;;26.60;99.90;;;;;;4987209;28;20926;-70
2021/08/14 09:06:50;;;;;;;8.23;7.20;;;26.70;99.90;;;;;;5007467;28;20813;-69
2021/08/14 09:09:16;;;;;;;7.47;6.67;;;26.80;99.90;;;;;;4988192;28;20470;-70
2021/08/14 09:11:52;;;;;;;13.07;8.93;;;26.90;99.90;;;;;;5003934;28;20188;-71
2021/08/14 09:14:19;;;;;;;6.90;5.73;;;26.80;99.90;;;;;;5005397;28;20505;-70
2021/08/14 09:16:45;;;;;;;7.60;6.80;;;26.80;99.90;;;;;;5003076;28;20428;-69
2021/08/14 09:19:22;;;;;;;6.57;5.97;;;26.80;99.90;;;;;;5007720;28;20502;-70
2021/08/14 09:21:49;;;;;;;7.27;6.57;;;27.00;99.90;;;;;;5011227;28;20455;-71
2021/08/14 09:24:41;;;;;;;7.77;6.50;;;27.10;99.90;;;;;;5006283;28;20471;-70
2021/08/14 09:27:07;;;;;;;7.20;6.60;;;27.10;99.90;;;;;;5004564;28;20443;-70
2021/08/14 09:29:35;;;;;;;7.73;6.23;;;27.20;99.90;;;;;;5010181;28;20817;-69
2021/08/14 09:32:06;;;;;;;8.30;7.50;;;27.30;99.90;;;;;;5003030;28;20459;-69
2021/08/14 09:34:32;;;;;;;7.33;6.60;;;27.30;99.90;;;;;;5008694;28;20428;-70
2021/08/14 09:37:07;;;;;;;9.93;6.10;;;27.40;99.90;;;;;;5007133;28;20464;-69
2021/08/14 09:39:48;;;;;;;7.43;6.80;;;27.50;99.90;;;;;;5004625;28;20486;-69
2021/08/14 09:42:13;;;;;;;9.30;6.43;;;27.60;99.90;;;;;;5007818;28;20420;-70
2021/08/14 09:44:41;;;;;;;8.40;6.50;;;27.70;99.90;;;;;;5006432;28;20436;-69
2021/08/14 09:47:13;;;;;;;8.40;6.60;;;27.80;99.90;;;;;;5004664;28;20189;-69
2021/08/14 09:49:57;;;;;;;8.40;7.13;;;27.80;99.90;;;;;;5007844;28;20527;-71
2021/08/14 09:52:25;;;;;;;8.30;7.20;;;27.90;99.90;;;;;;5007092;28;20842;-72
2021/08/14 09:54:53;;;;;;;7.00;6.30;;;28.00;99.90;;;;;;5005611;28;20432;-72
2021/08/14 09:57:19;;;;;;;8.13;7.33;;;28.00;99.90;;;;;;5007528;28;20526;-73
2021/08/14 09:59:49;;;;;;;7.50;6.83;;;28.00;99.90;;;;;;5006387;28;20503;-72
2021/08/14 10:02:29;;;;;;;8.20;6.53;;;28.10;99.90;;;;;;5005365;28;20444;-72
2021/08/14 10:04:57;;;;;;;9.63;6.93;;;28.00;99.90;;;;;;5007129;28;20818;-72
2021/08/14 10:07:23;;;;;;;7.07;6.40;;;28.20;99.90;;;;;;5006527;28;20447;-72
2021/08/14 10:09:50;;;;;;;6.80;6.10;;;28.20;99.90;;;;;;5006354;28;20460;-67
2021/08/14 10:12:18;;;;;;;8.43;7.27;;;28.30;99.90;;;;;;5007133;28;20484;-67
2021/08/14 10:14:47;;;;;;;7.30;6.50;;;28.40;99.90;;;;;;5004876;28;20479;-67
2021/08/14 10:17:13;;;;;;;8.80;6.70;;;28.40;99.90;;;;;;5008809;28;20860;-68
2021/08/14 10:19:39;;;;;;;9.23;6.70;;;28.50;99.90;;;;;;5006886;28;20487;-66
2021/08/14 10:22:07;;;;;;;7.60;6.83;;;28.60;99.90;;;;;;5005889;28;20440;-70
2021/08/14 10:24:40;;;;;;;7.77;6.83;;;28.60;99.90;;;;;;5008438;28;20232;-69
2021/08/14 10:27:09;;;;;;;7.17;6.57;;;28.60;99.90;;;;;;5004728;28;20483;-70
2021/08/14 10:29:54;;;;;;;8.67;7.77;;;28.60;99.90;;;;;;5004669;28;20511;-69
2021/08/14 10:32:42;;;;;;;7.20;6.30;;;28.50;99.90;;;;;;5006960;28;20406;-69
2021/08/14 10:35:31;;;;;;;7.30;6.60;;;28.50;99.90;;;;;;5003415;28;20436;-72
2021/08/14 10:37:57;;;;;;;7.77;7.07;;;28.50;99.90;;;;;;5003967;28;20503;-72
2021/08/14 10:40:23;;;;;;;8.57;7.50;;;28.50;99.90;;;;;;5007243;28;20487;-72
2021/08/14 10:42:56;;;;;;;8.63;7.83;;;28.70;99.90;;;;;;5005425;28;20189;-72
2021/08/14 10:45:37;;;;;;;7.80;7.00;;;29.00;99.90;;;;;;5020359;28;20197;-72
2021/08/14 10:48:05;;;;;;;8.80;6.83;;;29.30;99.90;;;;;;5007267;28;20816;-72
2021/08/14 10:50:33;;;;;;;8.80;7.80;;;29.20;99.90;;;;;;5006688;28;20459;-72
2021/08/14 10:53:11;;;;;;;9.67;6.97;;;29.50;99.90;;;;;;5003514;28;20951;-71
2021/08/14 10:55:37;;;;;;;7.53;6.73;;;29.70;99.90;;;;;;5006049;28;20825;-71
2021/08/14 10:58:24;;;;;;;8.00;6.60;;;30.00;99.90;;;;;;5004860;28;20847;-72
2021/08/14 11:01:03;;;;;;;10.07;7.67;;;30.10;99.90;;;;;;5003175;28;20424;-72
2021/08/14 11:03:41;;;;;;;9.07;7.23;;;29.80;99.90;;;;;;5007845;28;20574;-72
2021/08/14 11:06:26;;;;;;;7.97;7.20;;;29.80;99.90;;;;;;5005748;28;20426;-72
2021/08/14 11:09:17;;;;;;;7.37;6.67;;;30.20;99.90;;;;;;5005226;28;20539;-72
2021/08/14 11:11:56;;;;;;;8.00;7.20;;;30.20;99.90;;;;;;5002057;28;20551;-71
2021/08/14 11:14:36;;;;;;;8.03;7.23;;;30.00;99.90;;;;;;5000909;28;20489;-72
2021/08/14 11:17:02;;;;;;;7.70;6.93;;;30.00;99.90;;;;;;5002330;28;20973;-73
2021/08/14 11:19:52;;;;;;;6.50;5.67;;;30.10;99.90;;;;;;4999584;28;20466;-72
2021/08/14 11:22:32;;;;;;;9.17;7.53;;;30.20;99.90;;;;;;5005073;28;20436;-72
2021/08/14 11:25:02;;;;;;;7.27;6.67;;;30.50;99.90;;;;;;5003904;28;20527;-72
2021/08/14 11:27:31;;;;;;;9.27;7.20;;;30.50;99.90;;;;;;5004163;28;20427;-72
2021/08/14 11:30:18;;;;;;;9.20;7.37;;;30.40;99.90;;;;;;5005372;28;20468;-72
2021/08/14 11:32:44;;;;;;;8.03;7.20;;;30.50;99.90;;;;;;5003077;28;20460;-72
2021/08/14 11:35:10;;;;;;;7.60;6.90;;;30.50;99.90;;;;;;5004720;28;20432;-72
2021/08/14 11:37:52;;;;;;;7.77;6.77;;;30.60;99.90;;;;;;5005480;28;20205;-71
2021/08/14 11:40:24;;;;;;;8.60;7.70;;;30.80;99.90;;;;;;5003740;28;20806;-72
2021/08/14 11:42:58;;;;;;;9.10;8.20;;;31.00;99.90;;;;;;5006100;28;20460;-72
2021/08/14 11:45:24;;;;;;;8.53;6.70;;;31.10;99.90;;;;;;5004432;28;20444;-72
2021/08/14 11:48:01;;;;;;;7.27;6.57;;;31.10;99.90;;;;;;5001749;28;20869;-72
2021/08/14 11:50:45;;;;;;;7.53;6.83;;;31.30;99.90;;;;;;5021157;28;20435;-72
2021/08/14 11:53:13;;;;;;;8.40;7.27;;;31.50;99.90;;;;;;5000679;28;20476;-69
2021/08/14 11:55:42;;;;;;;7.57;6.87;;;31.70;99.40;;;;;;4983639;28;21003;-71
2021/08/14 11:58:08;;;;;;;9.03;7.20;;;31.80;99.40;;;;;;5002619;28;20472;-71
2021/08/14 12:00:36;;;;;;;7.27;6.67;;;31.50;99.00;;;;;;5004489;28;20459;-71
2021/08/14 12:03:03;;;;;;;8.00;7.20;;;31.40;98.70;;;;;;5002611;28;20275;-71
2021/08/14 12:05:29;;;;;;;8.40;6.73;;;31.40;98.40;;;;;;5002431;28;20416;-72
2021/08/14 12:07:57;;;;;;;8.27;7.57;;;32.20;97.80;;;;;;5001015;28;20883;-71
2021/08/14 12:10:23;;;;;;;7.53;6.90;;;33.00;97.70;;;;;;5002009;28;20667;-70
2021/08/14 12:13:06;;;;;;;7.33;6.73;;;34.90;94.90;;;;;;5005110;28;20430;-70
2021/08/14 12:15:35;;;;;;;11.10;6.20;;;36.50;91.70;;;;;;5003390;28;20204;-71
2021/08/14 12:18:02;;;;;;;7.17;6.57;;;38.10;87.50;;;;;;5001787;28;20468;-73
2021/08/14 12:20:37;;;;;;;7.23;6.63;;;39.10;81.10;;;;;;5004265;28;20471;-69
2021/08/14 12:23:26;;;;;;;7.27;6.67;;;39.80;75.00;;;;;;5001866;28;20435;-72
2021/08/14 12:25:59;;;;;;;7.13;6.43;;;40.20;70.10;;;;;;5003398;28;20440;-71
2021/08/14 12:29:20;;;;;;;7.50;6.80;;;39.30;68.80;;;;;;5003156;28;20778;-65
2021/08/14 12:31:52;;;;;;;7.40;6.73;;;39.80;68.20;;;;;;4992263;28;20461;-65
2021/08/14 12:34:28;;;;;;;7.20;6.50;;;40.60;64.80;;;;;;5004566;28;20446;-65
2021/08/14 12:37:07;;;;;;;7.40;6.43;;;41.20;62.00;;;;;;5005112;28;20954;-63
2021/08/14 12:39:57;;;;;;;8.13;6.90;;;40.70;62.70;;;;;;5002385;28;20479;-65
2021/08/14 12:42:34;;;;;;;7.57;6.87;;;40.20;60.00;;;;;;5007112;28;20829;-66
2021/08/14 12:45:14;;;;;;;7.43;6.70;;;40.00;60.80;;;;;;5001708;28;20458;-64
2021/08/14 12:47:41;;;;;;;6.97;6.37;;;41.50;59.90;;;;;;5002229;28;20438;-65
2021/08/14 12:50:25;;;;;;;6.90;6.40;;;41.40;57.50;;;;;;5017642;28;20443;-65
2021/08/14 12:53:07;;;;;;;7.60;7.00;;;41.50;57.60;;;;;;5004448;28;20470;-66
2021/08/14 12:55:44;;;;;;;7.83;7.20;;;42.40;56.50;;;;;;5000939;28;20451;-65
2021/08/14 12:58:15;;;;;;;7.20;6.60;;;41.90;56.30;;;;;;5005082;28;21407;-70